createdAt,value
2018-10-21T00:01:07.158Z,24.10
2018-10-21T00:03:34.565Z,24.13
2018-10-21T00:06:02.007Z,25.10
2018-10-21T00:08:29.416Z,24.50
2018-10-21T00:10:56.842Z,24.60
2018-10-21T00:13:24.264Z,26.53
2018-10-21T00:15:51.674Z,24.70
2018-10-21T00:18:19.094Z,26.80
2018-10-21T00:20:46.517Z,24.70
2018-10-21T00:23:13.936Z,24.10
2018-10-21T00:25:41.353Z,25.93
2018-10-21T00:28:08.751Z,23.37
2018-10-21T00:30:36.175Z,23.67
2018-10-21T00:33:03.609Z,24.13
2018-10-21T00:35:30.995Z,23.50
2018-10-21T00:37:58.431Z,25.50
2018-10-21T00:40:25.840Z,24.60
2018-10-21T00:42:53.263Z,25.30
2018-10-21T00:45:20.666Z,26.20
2018-10-21T00:47:48.102Z,24.80
2018-10-21T00:50:15.514Z,26.23
2018-10-21T00:52:42.954Z,25.23
2018-10-21T00:55:10.355Z,26.77
2018-10-21T00:57:37.757Z,26.70
2018-10-21T01:00:05.179Z,25.87
2018-10-21T01:02:32.613Z,24.53
2018-10-21T01:05:00.012Z,25.17
2018-10-21T01:07:27.437Z,25.53
2018-10-21T01:09:54.858Z,27.60
2018-10-21T01:12:22.281Z,29.00
2018-10-21T01:14:49.681Z,27.40
2018-10-21T01:17:17.122Z,25.50
2018-10-21T01:19:44.520Z,24.70
2018-10-21T01:22:11.954Z,26.83
2018-10-21T01:24:39.368Z,25.27
2018-10-21T01:27:06.816Z,26.47
2018-10-21T01:29:34.183Z,25.13
2018-10-21T01:32:01.613Z,26.93
2018-10-21T01:34:29.021Z,24.80
2018-10-21T01:36:56.572Z,27.87
2018-10-21T01:39:23.833Z,29.23
2018-10-21T01:41:51.255Z,27.40
2018-10-21T01:44:18.665Z,28.27
2018-10-21T01:46:46.092Z,27.73
2018-10-21T01:49:13.524Z,25.57
2018-10-21T01:51:40.928Z,28.13
2018-10-21T01:54:08.334Z,28.97
2018-10-21T01:56:35.773Z,28.23
2018-10-21T01:59:03.200Z,27.87
2018-10-21T02:01:30.618Z,28.47
2018-10-21T02:03:58.022Z,26.40
2018-10-21T02:06:25.457Z,25.70
2018-10-21T02:08:52.872Z,27.13
2018-10-21T02:11:20.307Z,29.60
2018-10-21T02:13:47.716Z,29.70
2018-10-21T02:16:15.140Z,27.10
2018-10-21T02:18:42.545Z,27.63
2018-10-21T02:21:10.030Z,25.10
2018-10-21T02:23:37.388Z,25.90
2018-10-21T02:26:04.812Z,29.23
2018-10-21T02:28:32.215Z,28.47
2018-10-21T02:30:59.729Z,27.57
2018-10-21T02:33:27.225Z,27.30
2018-10-21T02:35:54.563Z,27.60
2018-10-21T02:38:21.997Z,26.37
2018-10-21T02:41:26.548Z,27.30
2018-10-21T02:43:53.969Z,27.33
2018-10-21T02:46:21.403Z,26.53
2018-10-21T02:48:48.836Z,28.57
2018-10-21T02:51:16.319Z,28.57
2018-10-21T02:53:43.689Z,27.60
2018-10-21T02:56:11.092Z,30.87
2018-10-21T02:58:38.524Z,29.67
2018-10-21T03:01:05.940Z,30.73
2018-10-21T03:03:33.372Z,30.70
2018-10-21T03:06:00.768Z,31.27
2018-10-21T03:08:28.202Z,31.10
2018-10-21T03:10:55.633Z,29.50
2018-10-21T03:13:23.058Z,30.97
2018-10-21T03:15:50.457Z,28.67
2018-10-21T03:18:17.921Z,29.83
2018-10-21T03:20:45.298Z,31.37
2018-10-21T03:23:12.743Z,31.53
2018-10-21T03:25:40.208Z,28.80
2018-10-21T03:28:07.596Z,26.60
2018-10-21T03:30:35.038Z,26.93
2018-10-21T03:33:02.515Z,27.47
2018-10-21T03:35:29.866Z,29.67
2018-10-21T03:37:57.271Z,29.77
2018-10-21T03:40:24.677Z,29.33
2018-10-21T03:42:52.113Z,29.63
2018-10-21T03:45:19.519Z,26.13
2018-10-21T03:47:46.957Z,26.57
2018-10-21T03:50:14.384Z,25.17
2018-10-21T03:52:41.807Z,25.27
2018-10-21T03:55:09.225Z,26.10
2018-10-21T03:57:36.634Z,25.37
2018-10-21T04:00:04.084Z,28.87
2018-10-21T04:02:31.488Z,26.07
2018-10-21T04:04:58.907Z,25.70
2018-10-21T04:07:26.334Z,26.67
2018-10-21T04:09:53.766Z,25.00
2018-10-21T04:12:21.179Z,25.03
2018-10-21T04:14:48.608Z,26.23
2018-10-21T04:17:16.044Z,28.17
2018-10-21T04:19:43.448Z,25.50
2018-10-21T04:22:11.025Z,28.83
2018-10-21T04:24:38.296Z,25.13
2018-10-21T04:27:05.713Z,28.30
2018-10-21T04:29:33.151Z,29.90
2018-10-21T04:32:02.131Z,26.50
2018-10-21T04:34:28.053Z,27.73
2018-10-21T04:36:55.431Z,28.10
2018-10-21T04:39:44.358Z,28.30
2018-10-21T04:42:11.768Z,26.40
2018-10-21T04:44:39.209Z,25.10
2018-10-21T04:47:06.701Z,27.77
2018-10-21T04:49:34.070Z,26.47
2018-10-21T04:52:01.468Z,25.90
2018-10-21T04:54:28.885Z,27.33
2018-10-21T04:56:56.287Z,27.83
2018-10-21T04:59:23.700Z,29.50
2018-10-21T05:01:51.136Z,28.43
2018-10-21T05:04:18.545Z,31.37
2018-10-21T05:06:45.969Z,33.27
2018-10-21T05:09:13.407Z,32.63
2018-10-21T05:11:40.807Z,32.00
2018-10-21T05:14:08.233Z,30.17
2018-10-21T05:16:35.725Z,31.83
2018-10-21T05:19:03.078Z,31.97
2018-10-21T05:21:30.506Z,35.17
2018-10-21T05:23:57.951Z,35.33
2018-10-21T05:26:25.350Z,33.37
2018-10-21T05:28:52.770Z,36.10
2018-10-21T05:31:20.201Z,37.77
2018-10-21T05:33:47.611Z,36.23
2018-10-21T05:36:15.033Z,35.97
2018-10-21T05:38:42.451Z,35.37
2018-10-21T05:41:09.885Z,34.47
2018-10-21T05:43:37.288Z,32.60
2018-10-21T05:46:04.757Z,35.67
2018-10-21T05:48:32.157Z,37.43
2018-10-21T05:50:59.568Z,36.70
2018-10-21T05:53:26.989Z,35.13
2018-10-21T05:55:54.412Z,35.27
2018-10-21T05:58:21.874Z,36.13
2018-10-21T06:00:49.262Z,34.53
2018-10-21T06:03:16.698Z,34.63
2018-10-21T06:05:44.123Z,36.87
2018-10-21T06:08:11.549Z,34.90
2018-10-21T06:10:38.971Z,35.60
2018-10-21T06:13:06.383Z,33.83
2018-10-21T06:15:33.815Z,38.17
2018-10-21T06:18:01.244Z,37.53
2018-10-21T06:20:28.644Z,39.13
2018-10-21T06:22:56.068Z,41.10
2018-10-21T06:25:23.508Z,39.73
2018-10-21T06:27:50.918Z,34.27
2018-10-21T06:30:18.331Z,36.03
2018-10-21T06:32:45.761Z,36.67
2018-10-21T06:35:13.183Z,36.13
2018-10-21T06:37:40.617Z,35.30
2018-10-21T06:40:08.028Z,36.00
2018-10-21T06:42:35.459Z,34.77
2018-10-21T06:45:02.910Z,34.70
2018-10-21T06:47:30.313Z,37.20
2018-10-21T06:49:57.721Z,36.10
2018-10-21T06:52:25.134Z,36.97
2018-10-21T06:54:52.579Z,33.17
2018-10-21T06:57:20.258Z,37.30
2018-10-21T06:59:47.442Z,36.27
2018-10-21T07:02:14.858Z,36.67
2018-10-21T07:04:42.340Z,36.60
2018-10-21T07:07:09.708Z,36.57
2018-10-21T07:09:37.133Z,37.70
2018-10-21T07:12:04.539Z,38.73
2018-10-21T07:14:31.971Z,41.00
2018-10-21T07:16:59.384Z,37.53
2018-10-21T07:19:26.819Z,37.93
2018-10-21T07:21:54.226Z,39.50
2018-10-21T07:24:21.645Z,38.20
2018-10-21T07:26:49.045Z,36.63
2018-10-21T07:29:16.449Z,39.77
2018-10-21T07:31:43.891Z,39.10
2018-10-21T07:34:11.374Z,37.40
2018-10-21T07:36:38.731Z,40.53
2018-10-21T07:39:06.145Z,40.50
2018-10-21T07:41:33.566Z,40.83
2018-10-21T07:44:00.994Z,42.60
2018-10-21T07:46:28.453Z,40.60
2018-10-21T07:48:55.889Z,43.13
2018-10-21T07:51:23.285Z,40.53
2018-10-21T07:53:50.717Z,45.70
2018-10-21T07:56:18.127Z,44.03
2018-10-21T07:58:45.570Z,41.63
2018-10-21T08:01:13.013Z,46.47
2018-10-21T08:03:40.429Z,43.43
2018-10-21T08:06:45.310Z,44.40
2018-10-21T08:09:12.738Z,43.10
2018-10-21T08:11:40.151Z,43.03
2018-10-21T08:14:07.560Z,44.47
2018-10-21T08:16:35.000Z,43.23
2018-10-21T08:19:02.450Z,44.00
2018-10-21T08:21:29.863Z,45.03
2018-10-21T08:23:57.259Z,42.43
2018-10-21T08:26:24.704Z,44.30
2018-10-21T08:28:52.133Z,46.13
2018-10-21T08:31:19.561Z,42.53
2018-10-21T08:33:46.975Z,47.27
2018-10-21T08:36:14.396Z,44.40
2018-10-21T08:38:41.804Z,45.67
2018-10-21T08:41:09.221Z,45.00
2018-10-21T08:43:36.635Z,45.43
2018-10-21T08:46:04.084Z,42.00
2018-10-21T08:48:31.486Z,43.47
2018-10-21T08:50:58.913Z,41.27
2018-10-21T08:53:26.345Z,40.40
2018-10-21T08:55:53.849Z,41.73
2018-10-21T08:58:21.206Z,40.40
2018-10-21T09:00:48.630Z,40.47
2018-10-21T09:03:16.031Z,40.53
2018-10-21T09:05:43.484Z,40.40
2018-10-21T09:08:10.893Z,38.57
2018-10-21T09:10:38.353Z,39.83
2018-10-21T09:13:05.773Z,42.30
2018-10-21T09:15:33.205Z,39.67
2018-10-21T09:18:00.588Z,39.20
2018-10-21T09:20:28.023Z,36.60
2018-10-21T09:22:55.459Z,37.73
2018-10-21T09:25:22.886Z,39.97
2018-10-21T09:27:50.288Z,40.10
2018-10-21T09:30:17.717Z,37.73
2018-10-21T09:32:45.117Z,37.37
2018-10-21T09:35:12.560Z,38.13
2018-10-21T09:37:40.043Z,36.43
2018-10-21T09:40:07.486Z,36.73
2018-10-21T09:42:34.925Z,37.67
2018-10-21T09:45:02.328Z,36.10
2018-10-21T09:47:29.747Z,36.30
2018-10-21T09:49:57.231Z,37.03
2018-10-21T09:52:24.591Z,38.17
2018-10-21T09:54:52.029Z,35.83
2018-10-21T09:57:19.436Z,35.20
2018-10-21T09:59:46.873Z,37.80
2018-10-21T10:02:17.245Z,37.50
2018-10-21T10:04:44.663Z,33.37
2018-10-21T10:07:12.158Z,33.97
2018-10-21T10:09:39.502Z,34.77
2018-10-21T10:12:06.909Z,33.20
2018-10-21T10:14:34.350Z,33.87
2018-10-21T10:17:01.796Z,33.00
2018-10-21T10:19:29.208Z,31.17
2018-10-21T10:21:56.667Z,32.10
2018-10-21T10:24:24.084Z,30.23
2018-10-21T10:26:51.541Z,31.60
2018-10-21T10:29:18.967Z,27.03
2018-10-21T10:31:46.414Z,29.60
2018-10-21T10:34:13.910Z,30.47
2018-10-21T10:36:41.274Z,31.30
2018-10-21T10:39:08.695Z,30.40
2018-10-21T10:41:36.141Z,31.50
2018-10-21T10:44:03.546Z,29.00
2018-10-21T10:46:31.036Z,29.83
2018-10-21T10:48:58.487Z,28.77
2018-10-21T10:51:25.858Z,26.73
2018-10-21T10:53:53.267Z,28.43
2018-10-21T10:56:20.708Z,26.97
2018-10-21T10:58:48.106Z,28.00
2018-10-21T11:01:15.635Z,25.70
2018-10-21T11:03:42.972Z,25.73
2018-10-21T11:06:10.391Z,25.70
2018-10-21T11:08:37.799Z,26.27
2018-10-21T11:11:05.236Z,24.97
2018-10-21T11:13:32.676Z,25.23
2018-10-21T11:16:00.121Z,26.73
2018-10-21T11:18:27.504Z,23.40
2018-10-21T11:20:54.940Z,23.37
2018-10-21T11:23:22.348Z,24.03
2018-10-21T11:25:49.773Z,22.43
2018-10-21T11:28:17.304Z,22.17
2018-10-21T11:30:44.620Z,23.60
2018-10-21T11:33:12.025Z,26.57
2018-10-21T11:35:39.462Z,25.03
2018-10-21T11:38:06.893Z,23.97
2018-10-21T11:40:34.313Z,26.03
2018-10-21T11:43:01.811Z,27.07
2018-10-21T11:45:29.209Z,24.53
2018-10-21T11:47:56.615Z,23.80
2018-10-21T11:50:24.019Z,25.57
2018-10-21T11:52:51.455Z,24.60
2018-10-21T11:55:18.924Z,24.83
2018-10-21T11:57:46.288Z,24.27
2018-10-21T12:00:13.730Z,27.17
2018-10-21T12:02:41.133Z,27.53
2018-10-21T12:05:08.574Z,25.77
2018-10-21T12:07:35.997Z,24.43
2018-10-21T12:10:03.464Z,24.90
2018-10-21T12:12:30.857Z,24.10
2018-10-21T12:14:58.289Z,25.60
2018-10-21T12:17:25.703Z,25.60
2018-10-21T12:19:53.187Z,25.17
2018-10-21T12:22:20.637Z,24.00
2018-10-21T12:24:47.960Z,25.90
2018-10-21T12:27:15.370Z,24.37
2018-10-21T12:29:42.809Z,24.23
2018-10-21T12:32:10.218Z,23.83
2018-10-21T12:34:37.655Z,24.57
2018-10-21T12:37:05.139Z,23.47
2018-10-21T12:39:32.531Z,23.33
2018-10-21T12:41:59.936Z,24.30
2018-10-21T12:44:27.376Z,23.50
2018-10-21T12:46:54.788Z,24.73
2018-10-21T12:49:22.193Z,24.23
2018-10-21T12:51:49.632Z,22.20
2018-10-21T12:54:17.150Z,22.87
2018-10-21T12:56:44.489Z,22.57
2018-10-21T12:59:11.894Z,22.33
2018-10-21T13:01:39.330Z,21.53
2018-10-21T13:04:06.810Z,22.30
2018-10-21T13:06:34.212Z,20.47
2018-10-21T13:09:01.650Z,20.80
2018-10-21T13:11:29.087Z,20.97
2018-10-21T13:13:56.489Z,19.50
2018-10-21T13:16:23.928Z,20.90
2018-10-21T13:18:51.338Z,20.50
2018-10-21T13:21:18.753Z,22.00
2018-10-21T13:23:46.193Z,25.73
2018-10-21T13:26:13.609Z,22.67
2018-10-21T13:28:41.045Z,22.37
2018-10-21T13:31:08.512Z,22.03
2018-10-21T13:33:35.904Z,23.27
2018-10-21T13:36:03.299Z,21.57
2018-10-21T13:38:30.736Z,22.03
2018-10-21T13:40:58.173Z,22.40
2018-10-21T13:43:25.589Z,22.77
2018-10-21T13:45:53.030Z,22.47
2018-10-21T13:48:20.427Z,21.90
2018-10-21T13:50:47.887Z,21.87
2018-10-21T13:53:15.360Z,21.87
2018-10-21T13:55:42.743Z,21.90
2018-10-21T13:58:10.259Z,21.57
2018-10-21T14:00:37.708Z,20.83
2018-10-21T14:03:05.037Z,19.93
2018-10-21T14:05:32.483Z,22.10
2018-10-21T14:07:59.904Z,20.83
2018-10-21T14:10:27.325Z,21.13
2018-10-21T14:12:54.747Z,20.07
2018-10-21T14:15:22.175Z,21.03
2018-10-21T14:17:49.593Z,20.80
2018-10-21T14:20:16.988Z,21.80
2018-10-21T14:22:44.412Z,20.57
2018-10-21T14:25:11.898Z,22.33
2018-10-21T14:27:39.298Z,22.17
2018-10-21T14:30:06.780Z,20.63
2018-10-21T14:32:34.137Z,21.80
2018-10-21T14:35:01.548Z,23.00
2018-10-21T14:37:28.956Z,20.43
2018-10-21T14:39:56.400Z,20.93
2018-10-21T14:42:23.844Z,22.67
2018-10-21T14:44:51.273Z,24.20
2018-10-21T14:47:18.684Z,23.53
2018-10-21T14:49:46.147Z,21.27
2018-10-21T14:52:13.575Z,21.33
2018-10-21T14:54:41.829Z,22.30
2018-10-21T14:57:09.309Z,23.43
2018-10-21T14:59:36.730Z,23.20
2018-10-21T15:02:04.174Z,22.33
2018-10-21T15:04:31.542Z,23.13
2018-10-21T15:06:58.999Z,22.60
2018-10-21T15:09:26.491Z,22.53
2018-10-21T15:11:53.885Z,24.97
2018-10-21T15:14:21.267Z,24.53
2018-10-21T15:16:48.690Z,22.70
2018-10-21T15:19:16.132Z,22.47
2018-10-21T15:21:43.551Z,22.40
2018-10-21T15:24:10.978Z,21.87
2018-10-21T15:26:38.407Z,22.37
2018-10-21T15:29:08.834Z,21.17
2018-10-21T15:31:36.209Z,22.30
2018-10-21T15:34:03.667Z,21.50
2018-10-21T15:36:31.077Z,21.17
2018-10-21T15:41:25.917Z,23.43
2018-10-21T15:43:53.360Z,22.37
2018-10-21T15:46:20.805Z,21.90
2018-10-21T15:48:48.245Z,23.93
2018-10-21T15:51:15.618Z,23.63
2018-10-21T15:53:43.065Z,22.10
2018-10-21T15:56:10.541Z,22.37
2018-10-21T15:58:37.897Z,21.40
2018-10-21T16:01:05.347Z,20.97
2018-10-21T16:03:32.764Z,22.03
2018-10-21T16:06:00.193Z,20.97
2018-10-21T16:08:27.606Z,20.77
2018-10-21T16:10:55.089Z,20.07
2018-10-21T16:13:22.452Z,19.10
2018-10-21T16:15:49.908Z,19.50
2018-10-21T16:18:17.285Z,20.17
2018-10-21T16:20:44.707Z,20.00
2018-10-21T16:23:12.472Z,19.87
2018-10-21T16:25:40.014Z,20.43
2018-10-21T16:28:07.393Z,21.13
2018-10-21T16:30:34.785Z,21.00
2018-10-21T16:33:02.181Z,20.30
2018-10-21T16:35:29.620Z,20.47
2018-10-21T16:37:57.027Z,20.97
2018-10-21T16:40:24.464Z,20.40
2018-10-21T16:42:51.868Z,22.97
2018-10-21T16:45:19.380Z,21.80
2018-10-21T16:47:46.738Z,22.30
2018-10-21T16:50:14.181Z,22.63
2018-10-21T16:52:41.618Z,21.60
2018-10-21T16:55:09.026Z,20.73
2018-10-21T16:57:36.531Z,21.87
2018-10-21T17:00:04.031Z,22.10
2018-10-21T17:02:31.358Z,21.63
2018-10-21T17:04:58.815Z,20.90
2018-10-21T17:07:28.919Z,21.40
2018-10-21T17:09:56.516Z,21.43
2018-10-21T17:12:23.776Z,21.10
2018-10-21T17:14:51.197Z,22.03
2018-10-21T17:17:18.734Z,20.90
2018-10-21T17:19:46.087Z,21.43
2018-10-21T17:22:13.571Z,22.23
2018-10-21T17:24:40.927Z,20.77
2018-10-21T17:27:08.356Z,23.00
2018-10-21T17:29:35.762Z,21.23
2018-10-21T17:32:03.189Z,25.33
2018-10-21T17:34:30.597Z,25.87
2018-10-21T17:36:58.114Z,24.97
2018-10-21T17:39:25.523Z,25.00
2018-10-21T17:41:52.947Z,23.70
2018-10-21T17:44:20.379Z,26.07
2018-10-21T17:46:47.795Z,24.30
2018-10-21T17:49:15.290Z,25.33
2018-10-21T17:51:42.670Z,27.23
2018-10-21T17:54:10.151Z,25.03
2018-10-21T17:56:37.559Z,25.67
2018-10-21T17:59:04.983Z,24.47
2018-10-21T18:01:32.415Z,25.70
2018-10-21T18:03:59.848Z,24.20
2018-10-21T18:06:27.259Z,23.40
2018-10-21T18:08:54.675Z,23.67
2018-10-21T18:11:22.151Z,23.93
2018-10-21T18:13:49.631Z,23.13
2018-10-21T18:16:17.149Z,22.87
2018-10-21T18:18:44.432Z,23.77
2018-10-21T18:21:11.870Z,23.73
2018-10-21T18:23:39.283Z,23.10
2018-10-21T18:26:06.801Z,23.50
2018-10-21T18:28:34.125Z,23.43
2018-10-21T18:31:01.577Z,23.70
2018-10-21T18:33:28.963Z,22.47
2018-10-21T18:35:56.395Z,25.87
2018-10-21T18:38:23.836Z,25.20
2018-10-21T18:40:51.384Z,24.70
2018-10-21T18:43:18.841Z,24.17
2018-10-21T18:45:46.116Z,24.60
2018-10-21T18:48:13.554Z,25.27
2018-10-21T18:50:40.938Z,25.23
2018-10-21T18:53:08.425Z,27.47
2018-10-21T18:55:35.830Z,27.57
2018-10-21T18:58:03.370Z,25.80
2018-10-21T19:00:30.767Z,26.67
2018-10-21T19:02:58.202Z,25.53
2018-10-21T19:05:25.639Z,26.07
2018-10-21T19:07:53.084Z,25.17
2018-10-21T19:10:20.521Z,26.00
2018-10-21T19:12:59.571Z,25.33
2018-10-21T19:15:15.440Z,25.03
2018-10-21T19:17:42.848Z,24.03
2018-10-21T19:20:10.272Z,25.53
2018-10-21T19:22:37.714Z,26.03
2018-10-21T19:25:05.144Z,26.13
2018-10-21T19:27:32.540Z,26.07
2018-10-21T19:29:59.976Z,26.13
2018-10-21T19:32:27.420Z,25.53
2018-10-21T19:34:54.854Z,25.17
2018-10-21T19:37:22.262Z,25.93
2018-10-21T19:39:49.715Z,26.43
2018-10-21T19:42:17.141Z,26.23
2018-10-21T19:44:44.564Z,27.27
2018-10-21T19:47:11.993Z,29.17
2018-10-21T19:49:39.484Z,28.07
2018-10-21T19:52:06.979Z,27.30
2018-10-21T19:54:34.407Z,26.87
2018-10-21T19:57:01.813Z,28.23
2018-10-21T19:59:29.220Z,30.20
2018-10-21T20:01:56.652Z,29.50
2018-10-21T20:04:24.049Z,27.17
2018-10-21T20:06:51.537Z,28.53
2018-10-21T20:09:18.990Z,28.20
2018-10-21T20:11:46.450Z,28.60
2018-10-21T20:14:13.894Z,28.57
2018-10-21T20:16:41.355Z,29.20
2018-10-21T20:19:08.800Z,27.40
2018-10-21T20:21:36.182Z,29.03
2018-10-21T20:24:03.563Z,26.97
2018-10-21T20:26:30.993Z,27.70
2018-10-21T20:29:00.971Z,29.37
2018-10-21T20:31:28.403Z,29.53
2018-10-21T20:33:55.901Z,30.93
2018-10-21T20:36:23.329Z,30.63
2018-10-21T20:38:50.681Z,31.50
2018-10-21T20:41:18.128Z,29.50
2018-10-21T20:43:45.551Z,29.63
2018-10-21T20:46:13.049Z,31.77
2018-10-21T20:48:40.419Z,30.87
2018-10-21T20:51:07.868Z,32.03
2018-10-21T20:53:35.336Z,29.57
2018-10-21T20:56:02.741Z,30.33
2018-10-21T20:58:30.205Z,31.70
2018-10-21T21:00:57.619Z,30.80
2018-10-21T21:03:25.068Z,32.07
2018-10-21T21:05:52.477Z,29.83
2018-10-21T21:08:19.968Z,32.40
2018-10-21T21:10:47.319Z,30.30
2018-10-21T21:13:14.789Z,29.53
2018-10-21T21:15:42.199Z,29.97
2018-10-21T21:18:09.697Z,31.07
2018-10-21T21:20:37.090Z,30.10
2018-10-21T21:23:04.508Z,31.27
2018-10-21T21:25:31.928Z,31.80
2018-10-21T21:27:59.359Z,33.50
2018-10-21T21:30:26.799Z,30.40
2018-10-21T21:32:54.183Z,32.80
2018-10-21T21:35:21.615Z,31.43
2018-10-21T21:37:49.043Z,30.80
2018-10-21T21:40:16.524Z,31.73
2018-10-21T21:42:43.869Z,32.73
2018-10-21T21:45:11.279Z,32.30
2018-10-21T21:47:38.694Z,33.20
2018-10-21T21:50:06.130Z,33.67
2018-10-21T21:52:33.537Z,34.23
2018-10-21T21:55:20.581Z,34.27
2018-10-21T21:57:47.991Z,32.63
2018-10-21T22:00:15.473Z,34.37
2018-10-21T22:02:42.832Z,34.63
2018-10-21T22:05:10.286Z,34.60
2018-10-21T22:07:37.661Z,32.57
2018-10-21T22:10:05.114Z,31.30
2018-10-21T22:12:32.524Z,32.50
2018-10-21T22:14:59.932Z,32.37
2018-10-21T22:17:27.369Z,30.93
2018-10-21T22:19:54.782Z,32.63
2018-10-21T22:22:22.204Z,32.93
2018-10-21T22:24:49.629Z,32.70
2018-10-21T22:27:17.036Z,33.27
2018-10-21T22:29:44.475Z,32.93
2018-10-21T22:32:11.871Z,33.30
2018-10-21T22:34:39.297Z,32.53
2018-10-21T22:37:06.703Z,31.87
2018-10-21T22:39:34.144Z,32.87
2018-10-21T22:42:01.612Z,32.27
2018-10-21T22:44:28.989Z,34.97
2018-10-21T22:46:56.416Z,33.23
2018-10-21T22:49:23.848Z,32.13
2018-10-21T22:51:51.252Z,34.40
2018-10-21T22:54:18.797Z,34.23
2018-10-21T22:56:46.103Z,33.63
2018-10-21T22:59:13.539Z,37.17
2018-10-21T23:01:40.967Z,33.50
2018-10-21T23:04:08.453Z,35.13
2018-10-21T23:06:35.802Z,34.60
2018-10-21T23:09:03.250Z,33.00
2018-10-21T23:11:30.673Z,33.67
2018-10-21T23:13:58.066Z,35.27
2018-10-21T23:16:25.501Z,36.00
2018-10-21T23:18:52.908Z,34.67
2018-10-21T23:21:20.353Z,35.93
2018-10-21T23:23:47.765Z,35.40
2018-10-21T23:26:15.192Z,36.73
2018-10-21T23:28:42.593Z,38.30
2018-10-21T23:31:10.311Z,38.50
2018-10-21T23:33:37.709Z,37.33
2018-10-21T23:36:05.207Z,37.03
2018-10-21T23:38:32.570Z,38.57
2018-10-21T23:41:00.034Z,37.10
2018-10-21T23:43:27.449Z,35.90
2018-10-21T23:45:54.853Z,37.30
2018-10-21T23:48:22.283Z,36.57
2018-10-21T23:50:49.690Z,37.30
2018-10-21T23:53:17.127Z,37.00
2018-10-21T23:55:44.544Z,35.57
2018-10-21T23:58:12.045Z,37.70
